Time;durP1;ratioP1;P1;durP2;ratioP2;P2;SDS_P1;SDS_P2;PMS_P1;PMS_P2;Temp;Humidity;BMP_temperature;BMP_pressure;BME280_temperature;BME280_humidity;BME280_pressure;Samples;Min_cycle;Max_cycle;Signal;HPM_P1;HPM_P2
2023/09/25 00:00:20;;;;;;;;;;;;;;;11.90;100.00;101255.34;4996251;28;20490;-77
2023/09/25 00:02:48;;;;;;;5.15;3.45;;;;;;;11.83;100.00;101245.88;4977691;28;19930;-80
2023/09/25 00:05:17;;;;;;;4.93;3.13;;;;;;;11.72;100.00;101244.53;4973961;28;20050;-76
2023/09/25 00:07:48;;;;;;;4.55;3.30;;;;;;;11.65;100.00;101246.53;4994389;28;20064;-77
2023/09/25 00:10:18;;;;;;;5.30;3.28;;;;;;;11.51;100.00;101239.09;4994485;28;20034;-76
2023/09/25 00:12:48;;;;;;;4.43;2.85;;;;;;;11.44;100.00;101244.69;4970750;28;20054;-76
2023/09/25 00:15:19;;;;;;;8.07;3.58;;;;;;;11.34;100.00;101244.16;4988049;28;20125;-76
2023/09/25 00:17:49;;;;;;;3.53;3.10;;;;;;;11.23;100.00;101228.66;4975159;28;20046;-77
2023/09/25 00:20:20;;;;;;;3.65;3.20;;;;;;;11.33;100.00;101247.75;4979716;28;20039;-77
2023/09/25 00:22:48;;;;;;;3.42;3.03;;;;;;;11.28;100.00;101222.31;4994732;28;20050;-77
2023/09/25 00:25:18;;;;;;;3.97;2.83;;;;;;;11.30;100.00;101241.69;4988494;28;20051;-76
2023/09/25 00:27:46;;;;;;;3.67;2.97;;;;;;;11.20;100.00;101236.72;4980722;28;20043;-77
2023/09/25 00:30:15;;;;;;;5.30;3.50;;;;;;;11.12;100.00;101244.09;4993666;28;20044;-77
2023/09/25 00:32:45;;;;;;;3.80;3.03;;;;;;;10.96;100.00;101220.84;4970360;28;20065;-78
2023/09/25 00:35:15;;;;;;;5.53;3.45;;;;;;;11.04;100.00;101222.28;4986414;28;20047;-78
2023/09/25 00:37:45;;;;;;;;;;;;;;;11.20;100.00;101239.34;4997857;28;20046;-77
2023/09/25 00:40:17;;;;;;;3.38;2.95;;;;;;;11.23;100.00;101246.34;4988535;28;20377;-77
2023/09/25 00:42:48;;;;;;;4.45;3.10;;;;;;;11.23;100.00;101247.22;4969692;28;20064;-77
2023/09/25 00:45:17;;;;;;;5.82;3.20;;;;;;;11.25;100.00;101241.84;4973266;28;20050;-77
2023/09/25 00:47:51;;;;;;;4.07;3.00;;;;;;;11.25;100.00;101236.56;4959207;29;20058;-76
2023/09/25 00:50:20;;;;;;;3.72;3.20;;;;;;;11.20;100.00;101223.44;4962853;28;20043;-77
2023/09/25 00:52:49;;;;;;;5.38;3.42;;;;;;;11.22;100.00;101248.13;4974534;28;20050;-78
2023/09/25 00:55:19;;;;;;;3.58;2.90;;;;;;;11.13;100.00;101244.94;4958598;29;20098;-75
2023/09/25 00:57:50;;;;;;;4.07;2.90;;;;;;;11.08;100.00;101244.25;4962911;28;20066;-76
2023/09/25 01:00:18;;;;;;;4.95;3.20;;;;;;;11.11;100.00;101239.69;4989100;28;20055;-75
2023/09/25 01:02:48;;;;;;;4.68;3.10;;;;;;;11.20;100.00;101241.16;4952958;29;20134;-77
2023/09/25 01:05:21;;;;;;;3.88;2.95;;;;;;;11.21;100.00;101237.56;4955917;28;20155;-77
2023/09/25 01:07:49;;;;;;;4.13;3.00;;;;;;;11.13;100.00;101231.69;4953374;29;20055;-76
2023/09/25 01:10:19;;;;;;;3.90;3.13;;;;;;;11.06;100.00;101225.75;4939967;29;20043;-76
2023/09/25 01:12:52;;;;;;;3.88;3.20;;;;;;;11.04;100.00;101226.72;4947108;29;20055;-77
2023/09/25 01:15:21;;;;;;;3.53;2.97;;;;;;;10.96;100.00;101232.28;4954639;29;20095;-76
2023/09/25 01:17:51;;;;;;;5.95;3.05;;;;;;;10.69;100.00;101197.03;4971783;28;20448;-77
2023/09/25 01:20:22;;;;;;;3.72;3.00;;;;;;;10.85;100.00;101224.72;4955417;28;20040;-78
2023/09/25 01:22:52;;;;;;;3.28;2.97;;;;;;;10.82;100.00;101230.13;4963972;28;20592;-77
2023/09/25 01:25:22;;;;;;;3.92;3.42;;;;;;;10.75;100.00;101227.72;4959409;28;20051;-77
2023/09/25 01:27:51;;;;;;;4.45;3.30;;;;;;;10.64;100.00;101220.16;4952783;28;20054;-77
2023/09/25 01:30:20;;;;;;;4.95;3.95;;;;;;;10.58;100.00;101224.78;4957705;28;20031;-75
2023/09/25 01:32:51;;;;;;;4.15;3.15;;;;;;;10.51;100.00;101225.00;4932235;29;20047;-75
2023/09/25 01:35:23;;;;;;;5.93;3.80;;;;;;;10.51;100.00;101219.72;4939533;29;20071;-76
2023/09/25 01:37:57;;;;;;;4.00;3.22;;;;;;;10.52;100.00;101216.16;4952019;29;20107;-78
2023/09/25 01:40:26;;;;;;;5.03;3.22;;;;;;;10.63;100.00;101218.44;4939177;29;20054;-76
2023/09/25 01:42:55;;;;;;;3.35;3.00;;;;;;;10.66;100.00;101218.34;4950005;29;20122;-77
2023/09/25 01:45:25;;;;;;;4.82;3.17;;;;;;;10.65;100.00;101221.91;4953509;28;20126;-78
2023/09/25 01:47:54;;;;;;;3.40;3.10;;;;;;;10.52;100.00;101204.69;5010847;28;20077;-77
2023/09/25 01:50:27;;;;;;;3.38;2.83;;;;;;;10.58;100.00;101219.50;4976467;28;20049;-77
2023/09/25 01:53:00;;;;;;;4.10;3.00;;;;;;;10.55;100.00;101208.09;4970906;28;20057;-77
2023/09/25 01:55:35;;;;;;;5.25;3.38;;;;;;;10.56;100.00;101216.91;4977474;28;20058;-78
2023/09/25 01:58:06;;;;;;;5.25;3.03;;;;;;;10.51;100.00;101205.63;4982768;28;20140;-77
2023/09/25 02:00:36;;;;;;;3.10;2.80;;;;;;;10.48;100.00;101213.66;4993583;28;20133;-77
2023/09/25 02:03:06;;;;;;;4.82;2.92;;;;;;;10.45;100.00;101203.16;4978694;28;20070;-78
2023/09/25 02:05:34;;;;;;;4.40;2.80;;;;;;;10.45;100.00;101200.50;4973943;28;20047;-78
2023/09/25 02:08:04;;;;;;;4.03;2.67;;;;;;;10.40;100.00;101191.84;4980012;28;20042;-78
2023/09/25 02:10:36;;;;;;;2.88;2.67;;;;;;;10.49;100.00;101205.66;4993286;28;20030;-77
2023/09/25 02:13:04;;;;;;;4.07;2.80;;;;;;;10.42;100.00;101195.31;4991372;28;20517;-78
2023/09/25 02:15:33;;;;;;;3.38;3.08;;;;;;;10.39;100.00;101193.63;4999648;28;20043;-77
2023/09/25 02:18:03;;;;;;;4.20;3.38;;;;;;;10.35;100.00;101180.56;4989413;28;20073;-77
2023/09/25 02:20:35;;;;;;;3.90;3.08;;;;;;;10.29;100.00;101191.34;4966867;28;20657;-79
2023/09/25 02:23:06;;;;;;;3.90;3.15;;;;;;;10.19;100.00;101173.13;4968757;28;20131;-77
2023/09/25 02:25:34;;;;;;;6.47;2.90;;;;;;;10.21;100.00;101191.63;4996848;28;20101;-79
2023/09/25 02:28:03;;;;;;;3.10;2.80;;;;;;;10.26;100.00;101194.09;4982489;28;20039;-77
2023/09/25 02:30:33;;;;;;;3.13;2.90;;;;;;;10.23;100.00;101194.22;4974194;28;20065;-79
2023/09/25 02:33:02;;;;;;;5.53;3.33;;;;;;;10.12;100.00;101179.50;5004352;28;20050;-78
2023/09/25 02:35:31;;;;;;;4.50;3.10;;;;;;;10.18;100.00;101199.63;4972858;28;20054;-77
2023/09/25 02:38:00;;;;;;;4.05;3.15;;;;;;;10.07;100.00;101192.00;4992223;28;20054;-77
2023/09/25 02:40:33;;;;;;;3.78;3.45;;;;;;;9.94;100.00;101180.09;4973210;28;20035;-77
2023/09/25 02:43:03;;;;;;;4.80;3.55;;;;;;;9.94;100.00;101192.44;4988561;28;20059;-79
2023/09/25 02:45:31;;;;;;;5.72;3.55;;;;;;;9.88;100.00;101192.66;4992509;28;20045;-78
2023/09/25 02:47:59;;;;;;;4.60;3.53;;;;;;;9.84;100.00;101189.25;4964248;28;20052;-79
2023/09/25 02:50:27;;;;;;;5.43;3.30;;;;;;;9.90;100.00;101188.19;4992870;28;20042;-77
2023/09/25 02:52:55;;;;;;;4.15;3.13;;;;;;;9.88;100.00;101180.31;4982661;28;20054;-76
2023/09/25 02:55:23;;;;;;;4.47;3.38;;;;;;;9.98;100.00;101197.59;4976317;28;20086;-76
2023/09/25 02:57:53;;;;;;;4.55;3.10;;;;;;;9.99;100.00;101196.69;4991430;28;20047;-76
2023/09/25 03:00:22;;;;;;;3.22;2.90;;;;;;;9.93;100.00;101183.63;4991492;28;20085;-77
2023/09/25 03:02:51;;;;;;;5.30;3.38;;;;;;;9.92;100.00;101188.97;4989552;28;20141;-77
2023/09/25 03:05:20;;;;;;;6.25;3.08;;;;;;;9.85;100.00;101191.84;4982948;28;20422;-76
2023/09/25 03:07:48;;;;;;;3.72;3.08;;;;;;;9.83;100.00;101191.00;4960001;28;20077;-77
2023/09/25 03:10:17;;;;;;;4.00;3.22;;;;;;;9.83;100.00;101196.31;4973199;28;20054;-76
2023/09/25 03:12:47;;;;;;;3.75;3.45;;;;;;;9.76;100.00;101178.88;4950603;28;20066;-77
2023/09/25 03:15:16;;;;;;;4.07;3.10;;;;;;;9.84;100.00;101187.47;4985037;28;20050;-77
2023/09/25 03:17:45;;;;;;;5.35;3.60;;;;;;;9.82;100.00;101186.63;4988913;28;20558;-76
2023/09/25 03:20:15;;;;;;;5.18;3.20;;;;;;;9.89;100.00;101197.91;4955373;28;20126;-76
2023/09/25 03:22:46;;;;;;;3.80;3.25;;;;;;;9.87;100.00;101193.56;4977118;28;20052;-77
2023/09/25 03:25:17;;;;;;;4.32;3.42;;;;;;;9.81;100.00;101194.63;4971302;28;20038;-78
2023/09/25 03:27:49;;;;;;;3.65;3.35;;;;;;;9.86;100.00;101195.34;4970358;28;20101;-76
2023/09/25 03:30:18;;;;;;;4.18;3.30;;;;;;;9.87;100.00;101191.78;4994501;28;20046;-76
2023/09/25 03:32:51;;;;;;;4.10;3.70;;;;;;;9.81;100.00;101187.53;4970170;28;20090;-77
2023/09/25 03:35:20;;;;;;;3.78;3.15;;;;;;;9.81;100.00;101184.91;4984015;28;20046;-76
2023/09/25 03:37:48;;;;;;;3.95;3.47;;;;;;;9.78;100.00;101186.78;4962665;28;20057;-77
2023/09/25 03:40:17;;;;;;;4.90;3.33;;;;;;;9.70;100.00;101192.31;4955907;28;20046;-77
2023/09/25 03:42:47;;;;;;;4.65;3.13;;;;;;;9.60;100.00;101172.34;4986409;28;20054;-76
2023/09/25 03:45:15;;;;;;;4.40;3.15;;;;;;;9.71;100.00;101198.47;4991553;28;20403;-77
2023/09/25 03:47:44;;;;;;;3.25;2.92;;;;;;;9.70;100.00;101188.81;4996292;28;20053;-77
2023/09/25 03:50:12;;;;;;;3.38;3.08;;;;;;;9.61;100.00;101175.84;4979079;28;20050;-78
2023/09/25 03:52:40;;;;;;;3.70;3.10;;;;;;;9.59;100.00;101190.91;4976412;28;20057;-78
2023/09/25 03:55:11;;;;;;;4.63;3.28;;;;;;;9.61;100.00;101181.13;4966008;28;20167;-76
2023/09/25 03:57:39;;;;;;;3.85;3.38;;;;;;;9.69;100.00;101189.72;4981977;28;20049;-77
2023/09/25 04:00:11;;;;;;;3.67;3.05;;;;;;;9.74;100.00;101188.66;4977818;28;20108;-78
2023/09/25 04:02:41;;;;;;;4.05;2.88;;;;;;;9.77;100.00;101185.03;4993410;28;20046;-78
2023/09/25 04:05:12;;;;;;;4.90;3.40;;;;;;;9.67;100.00;101186.25;4969501;28;20077;-76
2023/09/25 04:07:40;;;;;;;4.97;3.40;;;;;;;9.60;100.00;101190.00;4975082;28;20054;-79
2023/09/25 04:10:10;;;;;;;4.10;3.33;;;;;;;9.62;100.00;101191.66;4986065;28;20042;-78
2023/09/25 04:12:38;;;;;;;7.57;3.38;;;;;;;9.53;100.00;101183.16;4984902;28;20125;-78
2023/09/25 04:15:13;;;;;;;5.63;3.53;;;;;;;9.55;100.00;101195.44;4980094;28;20034;-77
2023/09/25 04:17:42;;;;;;;6.03;3.42;;;;;;;9.50;100.00;101194.69;5000092;28;20040;-76
2023/09/25 04:20:24;;;;;;;6.60;3.22;;;;;;;9.37;100.00;101178.31;5001135;28;20050;-77
2023/09/25 04:22:56;;;;;;;6.65;3.55;;;;;;;9.50;100.00;101197.31;5005733;28;20058;-80
2023/09/25 04:25:27;;;;;;;4.15;3.30;;;;;;;9.53;100.00;101199.88;4998918;28;20047;-77
2023/09/25 04:27:57;;;;;;;5.38;3.42;;;;;;;9.45;100.00;101197.47;4991688;28;20054;-78
2023/09/25 04:30:25;;;;;;;3.85;3.38;;;;;;;9.41;100.00;101200.25;4992980;28;20054;-77
2023/09/25 04:32:55;;;;;;;;;;;;;;;9.39;100.00;101202.06;4991928;28;20125;-78
2023/09/25 04:35:25;;;;;;;4.65;3.28;;;;;;;9.34;100.00;101188.13;5006016;28;20047;-77
2023/09/25 04:37:56;;;;;;;5.53;3.58;;;;;;;9.36;100.00;101197.75;4995864;28;20042;-77
2023/09/25 04:40:24;;;;;;;3.63;3.30;;;;;;;9.34;100.00;101201.34;4970158;28;20050;-76
2023/09/25 04:42:54;;;;;;;5.82;3.78;;;;;;;9.31;100.00;101202.28;4988624;28;20153;-77
2023/09/25 04:45:23;;;;;;;5.13;3.42;;;;;;;9.29;100.00;101209.38;4994046;28;20071;-77
2023/09/25 04:47:52;;;;;;;4.03;3.28;;;;;;;9.29;100.00;101196.16;4994244;28;20044;-81
2023/09/25 04:50:23;;;;;;;4.97;3.40;;;;;;;9.35;100.00;101197.78;5002087;28;20053;-77
2023/09/25 04:52:54;;;;;;;3.90;3.25;;;;;;;9.32;100.00;101198.72;4998665;28;20058;-76
2023/09/25 04:55:24;;;;;;;5.82;3.58;;;;;;;9.33;100.00;101200.47;4980540;28;20112;-76
2023/09/25 04:57:52;;;;;;;4.90;3.93;;;;;;;9.30;100.00;101197.91;4984865;28;20030;-76
2023/09/25 05:00:24;;;;;;;4.88;3.60;;;;;;;9.25;100.00;101194.56;4971746;28;20051;-78
2023/09/25 05:02:55;;;;;;;4.13;3.60;;;;;;;9.27;100.00;101198.03;4984374;28;20464;-78
2023/09/25 05:05:25;;;;;;;4.30;3.80;;;;;;;9.26;100.00;101198.94;4990574;28;20054;-78
2023/09/25 05:07:56;;;;;;;4.68;3.88;;;;;;;9.24;100.00;101208.66;4970130;28;20042;-77
2023/09/25 05:10:26;;;;;;;4.60;4.07;;;;;;;9.21;100.00;101206.13;4995127;28;20062;-77
2023/09/25 05:12:55;;;;;;;5.05;3.78;;;;;;;9.24;100.00;101207.81;4993851;28;20050;-77
2023/09/25 05:15:26;;;;;;;4.78;4.05;;;;;;;9.26;100.00;101212.16;4989070;28;20495;-77
2023/09/25 05:17:56;;;;;;;4.38;3.75;;;;;;;9.33;100.00;101212.81;4974610;28;20475;-77
2023/09/25 05:20:26;;;;;;;4.63;3.72;;;;;;;9.33;100.00;101208.41;4978554;28;20137;-77
2023/09/25 05:22:57;;;;;;;4.25;3.80;;;;;;;9.33;100.00;101213.69;4969422;28;20499;-77
2023/09/25 05:25:26;;;;;;;5.32;3.97;;;;;;;9.36;100.00;101218.88;4988372;28;20050;-77
2023/09/25 05:27:57;;;;;;;4.30;3.65;;;;;;;9.37;100.00;101219.75;4987072;28;20050;-78
2023/09/25 05:30:27;;;;;;;4.07;3.72;;;;;;;9.34;100.00;101214.53;4997430;28;20080;-78
2023/09/25 05:32:55;;;;;;;4.30;3.90;;;;;;;9.30;100.00;101208.47;4981305;28;20089;-76
2023/09/25 05:35:24;;;;;;;6.40;4.30;;;;;;;9.42;100.00;101218.72;4971201;28;20039;-79
2023/09/25 05:37:54;;;;;;;6.22;3.80;;;;;;;9.45;100.00;101223.88;4979165;28;20141;-79
2023/09/25 05:40:24;;;;;;;5.22;3.67;;;;;;;9.48;100.00;101228.22;4975906;28;20038;-77
2023/09/25 05:42:54;;;;;;;5.00;4.05;;;;;;;9.44;100.00;101224.81;4975836;28;20062;-77
2023/09/25 05:45:22;;;;;;;6.45;3.63;;;;;;;9.45;100.00;101223.03;4974081;28;20042;-78
2023/09/25 05:47:50;;;;;;;5.35;3.92;;;;;;;9.52;100.00;101221.09;4975341;28;20053;-78
2023/09/25 05:50:19;;;;;;;5.38;4.40;;;;;;;9.53;100.00;101223.69;4970233;28;20035;-79
2023/09/25 05:52:52;;;;;;;4.95;4.07;;;;;;;9.67;100.00;101225.91;4991477;28;20184;-78
2023/09/25 05:55:20;;;;;;;6.32;4.47;;;;;;;9.77;100.00;101228.22;4971981;28;20050;-78
2023/09/25 05:57:49;;;;;;;4.68;3.90;;;;;;;9.81;100.00;101227.22;4989119;28;20043;-78
2023/09/25 06:00:18;;;;;;;6.55;4.25;;;;;;;9.82;100.00;101218.38;4973996;28;20042;-79
2023/09/25 06:02:47;;;;;;;4.60;3.80;;;;;;;9.87;100.00;101215.59;4974004;28;20039;-78
2023/09/25 06:05:16;;;;;;;6.00;4.15;;;;;;;9.88;100.00;101200.59;4985425;28;20082;-78
2023/09/25 06:07:45;;;;;;;6.30;4.20;;;;;;;10.07;100.00;101223.75;4975004;28;20053;-78
2023/09/25 06:10:13;;;;;;;6.97;4.25;;;;;;;10.16;100.00;101236.72;4995200;28;20651;-78
2023/09/25 06:12:43;;;;;;;4.43;3.95;;;;;;;10.17;100.00;101227.00;4991305;28;20050;-78
2023/09/25 06:15:13;;;;;;;5.93;4.05;;;;;;;10.29;100.00;101231.06;4988239;28;20065;-79
2023/09/25 06:17:44;;;;;;;4.80;4.20;;;;;;;10.36;100.00;101233.47;4959675;28;20046;-77
2023/09/25 06:20:20;;;;;;;4.47;3.92;;;;;;;10.41;100.00;101230.66;4978979;28;20105;-78
2023/09/25 06:22:50;;;;;;;5.78;4.35;;;;;;;10.54;100.00;101226.69;4975514;28;20043;-79
2023/09/25 06:25:21;;;;;;;4.07;3.63;;;;;;;10.70;100.00;101230.56;4990792;28;20133;-78
2023/09/25 06:27:49;;;;;;;7.05;4.00;;;;;;;10.83;100.00;101234.50;4976273;28;20586;-79
2023/09/25 06:30:19;;;;;;;5.03;3.80;;;;;;;10.95;100.00;101235.00;4975855;28;20038;-79
2023/09/25 06:32:48;;;;;;;6.90;4.15;;;;;;;11.04;100.00;101239.97;4992702;28;20077;-78
2023/09/25 06:35:17;;;;;;;6.25;3.83;;;;;;;11.10;100.00;101235.31;4959198;28;20070;-77
2023/09/25 06:37:48;;;;;;;5.40;3.80;;;;;;;11.16;100.00;101223.63;4974873;28;20046;-79
2023/09/25 06:40:19;;;;;;;5.78;4.40;;;;;;;11.39;100.00;101239.56;4989762;28;20042;-77
2023/09/25 06:42:47;;;;;;;4.10;3.50;;;;;;;11.59;100.00;101247.66;4991824;28;20046;-79
2023/09/25 06:45:15;;;;;;;5.07;3.50;;;;;;;11.78;100.00;101242.56;4977025;28;20057;-77
2023/09/25 06:47:47;;;;;;;5.03;3.35;;;;;;;11.99;100.00;101238.16;4993058;28;20061;-78
2023/09/25 06:50:17;;;;;;;5.05;3.38;;;;;;;12.28;100.00;101248.50;4978677;28;20133;-78
2023/09/25 06:52:45;;;;;;;6.13;3.42;;;;;;;12.55;100.00;101240.34;4986323;28;20046;-78
2023/09/25 06:55:13;;;;;;;5.03;3.20;;;;;;;12.81;100.00;101242.75;4970450;28;20042;-78
2023/09/25 06:57:43;;;;;;;4.95;3.00;;;;;;;13.12;100.00;101244.06;4961806;28;20049;-78
2023/09/25 07:00:15;;;;;;;4.07;3.00;;;;;;;13.42;100.00;101241.88;4959159;28;20050;-77
2023/09/25 07:02:43;;;;;;;4.53;2.90;;;;;;;13.69;100.00;101241.47;4978294;28;20076;-78
2023/09/25 07:05:14;;;;;;;3.13;2.63;;;;;;;13.86;100.00;101232.69;4984794;28;21060;-77
2023/09/25 07:07:42;;;;;;;4.20;2.72;;;;;;;14.02;100.00;101233.69;4976086;28;20057;-77
2023/09/25 07:10:11;;;;;;;3.03;2.63;;;;;;;14.12;100.00;101231.47;4982154;28;20043;-77
2023/09/25 07:12:39;;;;;;;2.90;2.50;;;;;;;14.28;100.00;101220.94;5005899;28;20093;-79
2023/09/25 07:15:09;;;;;;;3.92;2.30;;;;;;;14.46;100.00;101221.88;4974380;28;20462;-78
2023/09/25 07:17:48;;;;;;;3.80;2.70;;;;;;;14.70;100.00;101233.94;5010282;28;20105;-78
2023/09/25 07:20:20;;;;;;;3.22;2.42;;;;;;;14.65;100.00;101209.31;4995619;28;20038;-76
2023/09/25 07:22:48;;;;;;;2.83;2.20;;;;;;;14.82;100.00;101235.13;4980628;28;20046;-76
2023/09/25 07:25:16;;;;;;;4.47;2.47;;;;;;;14.73;100.00;101209.78;5001431;28;20053;-78
2023/09/25 07:27:44;;;;;;;3.85;2.47;;;;;;;14.94;100.00;101230.03;4991941;28;20043;-73
2023/09/25 07:30:14;;;;;;;3.17;2.85;;;;;;;14.89;100.00;101231.19;4987465;28;20786;-76
2023/09/25 07:32:43;;;;;;;4.43;2.60;;;;;;;15.05;100.00;101233.00;4960007;28;20062;-79
2023/09/25 07:35:15;;;;;;;4.43;2.50;;;;;;;15.16;100.00;101239.56;4967837;28;20066;-76
2023/09/25 07:37:45;;;;;;;2.88;2.33;;;;;;;15.23;100.00;101238.31;4994092;28;20585;-78
2023/09/25 07:40:15;;;;;;;3.45;2.40;;;;;;;15.26;100.00;101251.50;4981424;28;20042;-77
2023/09/25 07:42:44;;;;;;;3.15;2.20;;;;;;;15.44;100.00;101255.84;4976650;28;20048;-75
2023/09/25 07:45:20;;;;;;;2.80;2.23;;;;;;;15.77;100.00;101248.69;4979409;28;20050;-79
2023/09/25 07:47:52;;;;;;;4.78;2.80;;;;;;;15.89;100.00;101243.66;4991047;28;20074;-78
2023/09/25 07:50:24;;;;;;;5.15;2.33;;;;;;;15.88;100.00;101224.09;4958162;28;20133;-78
2023/09/25 07:52:54;;;;;;;8.95;3.72;;;;;;;16.07;100.00;101239.94;4994731;28;20050;-78
2023/09/25 07:55:23;;;;;;;47.10;12.48;;;;;;;16.18;100.00;101245.53;4972003;28;20053;-78
2023/09/25 07:57:51;;;;;;;11.88;3.20;;;;;;;16.25;100.00;101246.03;4997641;28;20610;-80
2023/09/25 08:00:23;;;;;;;4.25;2.90;;;;;;;16.12;100.00;101251.22;4967377;28;20136;-77
2023/09/25 08:02:52;;;;;;;4.28;2.60;;;;;;;16.08;100.00;101245.19;4979882;28;20526;-78
2023/09/25 08:05:22;;;;;;;4.47;2.75;;;;;;;15.89;100.00;101251.66;5003491;28;20098;-78
2023/09/25 08:07:54;;;;;;;6.90;2.83;;;;;;;15.71;100.00;101246.38;4963162;28;20173;-79
2023/09/25 08:10:25;;;;;;;7.43;3.20;;;;;;;15.54;100.00;101257.09;4996207;28;20050;-78
2023/09/25 08:12:54;;;;;;;4.07;2.70;;;;;;;15.50;100.00;101244.84;4979868;28;20054;-78
2023/09/25 08:15:23;;;;;;;4.68;2.70;;;;;;;15.54;100.00;101243.75;5001881;28;20056;-79
2023/09/25 08:17:51;;;;;;;3.78;2.50;;;;;;;15.84;100.00;101248.38;4992538;28;20042;-78
2023/09/25 08:20:22;;;;;;;4.10;2.38;;;;;;;16.04;100.00;101245.47;4977557;28;20134;-78
2023/09/25 08:22:57;;;;;;;6.00;2.47;;;;;;;16.08;100.00;101247.00;4976231;28;20851;-78
2023/09/25 08:25:27;;;;;;;3.60;2.33;;;;;;;16.23;100.00;101256.81;4970448;28;20050;-78
2023/09/25 08:27:55;;;;;;;4.78;2.30;;;;;;;16.27;100.00;101236.13;4980427;28;20519;-77
2023/09/25 08:30:23;;;;;;;5.78;2.45;;;;;;;16.45;97.87;101261.81;4977990;28;20070;-77
2023/09/25 08:32:52;;;;;;;3.55;2.00;;;;;;;16.37;98.36;101254.22;4977853;28;20095;-78
2023/09/25 08:35:20;;;;;;;3.33;2.50;;;;;;;16.27;98.23;101246.81;4985997;28;20053;-79
2023/09/25 08:37:49;;;;;;;3.55;2.53;;;;;;;16.31;98.33;101251.03;4987008;28;20054;-78
2023/09/25 08:40:20;;;;;;;4.93;2.50;;;;;;;16.30;97.66;101268.91;4991508;28;20121;-77
2023/09/25 08:42:52;;;;;;;3.63;2.45;;;;;;;16.26;98.81;101255.78;4977185;28;20561;-77
2023/09/25 08:45:36;;;;;;;3.58;2.38;;;;;;;16.21;97.51;101265.91;4978893;28;20574;-78
2023/09/25 08:48:06;;;;;;;4.22;2.50;;;;;;;16.17;98.45;101251.84;4973536;28;20569;-77
2023/09/25 08:50:36;;;;;;;5.55;2.75;;;;;;;16.16;98.18;101250.13;4962417;28;20058;-78
2023/09/25 08:53:06;;;;;;;4.50;2.75;;;;;;;16.19;98.81;101249.94;4977962;28;20046;-78
2023/09/25 08:55:36;;;;;;;4.18;2.80;;;;;;;16.25;97.70;101252.25;4985666;28;20169;-78
2023/09/25 08:58:11;;;;;;;3.50;2.15;;;;;;;16.32;97.85;101247.44;5004943;28;20034;-78
2023/09/25 09:00:40;;;;;;;4.03;2.50;;;;;;;16.42;97.35;101251.28;4975917;28;20149;-79
2023/09/25 09:03:08;;;;;;;5.60;2.60;;;;;;;16.33;95.78;101225.97;4983269;28;20051;-78
2023/09/25 09:05:38;;;;;;;4.32;2.55;;;;;;;16.36;95.09;101215.09;4973494;28;20089;-79
2023/09/25 09:08:10;;;;;;;;;;;;;;;16.48;95.66;101240.25;4993430;28;20058;-78
2023/09/25 09:10:40;;;;;;;4.15;2.70;;;;;;;16.41;95.43;101230.84;4975711;28;19941;-78
2023/09/25 09:13:11;;;;;;;2.55;1.98;;;;;;;16.44;95.40;101234.22;4970156;28;20055;-78
2023/09/25 09:15:41;;;;;;;5.90;2.60;;;;;;;16.49;97.09;101229.47;4952520;28;20169;-77
2023/09/25 09:18:24;;;;;;;4.13;2.47;;;;;;;16.52;92.15;101219.56;4988795;28;20058;-77
2023/09/25 09:20:55;;;;;;;4.30;2.40;;;;;;;16.66;92.82;101228.50;4992859;28;20540;-78
2023/09/25 09:23:42;;;;;;;5.93;2.60;;;;;;;16.80;92.34;101233.91;5011031;28;20050;-77
2023/09/25 09:26:13;;;;;;;3.42;2.05;;;;;;;16.93;91.61;101230.50;4986216;28;20057;-78
2023/09/25 09:28:45;;;;;;;2.97;2.30;;;;;;;17.06;89.28;101226.97;4994886;28;20050;-78
2023/09/25 09:31:17;;;;;;;4.50;2.55;;;;;;;17.18;88.31;101226.22;4969325;28;20482;-76
2023/09/25 09:33:46;;;;;;;4.00;2.20;;;;;;;17.23;87.97;101212.56;4975473;28;20046;-78
2023/09/25 09:36:15;;;;;;;3.08;2.20;;;;;;;17.36;86.57;101221.56;4975839;28;20058;-75
2023/09/25 09:38:46;;;;;;;3.72;2.28;;;;;;;17.39;85.63;101212.47;4980076;28;20042;-76
2023/09/25 09:41:16;;;;;;;3.22;2.00;;;;;;;17.45;83.96;101217.47;4963216;28;20101;-75
2023/09/25 09:43:48;;;;;;;3.03;1.98;;;;;;;17.54;82.93;101209.69;4975612;28;20153;-76
2023/09/25 09:46:17;;;;;;;2.92;1.95;;;;;;;17.65;83.31;101211.72;4985059;28;20057;-75
2023/09/25 09:48:47;;;;;;;2.90;2.08;;;;;;;17.78;81.38;101204.66;4994027;28;20057;-75
2023/09/25 09:51:17;;;;;;;4.65;1.92;;;;;;;17.83;79.80;101194.47;4977890;28;20415;-75
2023/09/25 09:53:49;;;;;;;3.50;2.20;;;;;;;18.00;80.18;101204.09;4974065;28;20042;-74
2023/09/25 09:56:21;;;;;;;5.80;2.00;;;;;;;18.09;77.06;101205.34;4970349;28;20043;-74
2023/09/25 09:58:51;;;;;;;5.85;2.28;;;;;;;18.21;76.93;101200.03;4977944;28;20046;-74
2023/09/25 10:01:21;;;;;;;4.28;2.00;;;;;;;18.29;74.72;101196.81;4977597;28;20119;-76
2023/09/25 10:03:50;;;;;;;4.47;2.30;;;;;;;18.36;74.71;101200.84;4971746;28;20524;-78
2023/09/25 10:06:18;;;;;;;3.90;2.03;;;;;;;18.41;71.68;101203.22;4985049;28;20030;-77
2023/09/25 10:09:01;;;;;;;3.58;2.10;;;;;;;18.39;71.82;101197.09;4994548;28;20042;-76
2023/09/25 10:11:30;;;;;;;7.78;3.22;;;;;;;18.37;75.54;101197.19;4986881;28;20570;-75
2023/09/25 10:14:04;;;;;;;2.78;1.73;;;;;;;18.36;73.18;101184.75;4979499;28;20565;-76
2023/09/25 10:17:07;;;;;;;5.07;2.20;;;;;;;18.47;72.39;101189.38;4968914;28;20043;-76
2023/09/25 10:19:52;;;;;;;4.05;1.90;;;;;;;18.61;71.49;101193.84;4991365;28;20149;-78
2023/09/25 10:22:22;;;;;;;3.25;2.08;;;;;;;18.70;70.75;101185.19;4974681;28;20076;-76
2023/09/25 10:25:04;;;;;;;3.40;2.10;;;;;;;18.79;69.04;101181.84;4994838;28;20062;-78
2023/09/25 10:27:36;;;;;;;5.68;2.05;;;;;;;18.83;68.18;101184.22;5006547;28;20054;-78
2023/09/25 10:30:11;;;;;;;3.25;1.98;;;;;;;18.85;69.85;101179.63;4957351;28;20047;-76
2023/09/25 10:32:43;;;;;;;2.42;1.95;;;;;;;18.95;68.74;101176.28;4979974;28;20487;-77
2023/09/25 10:35:37;;;;;;;4.15;2.42;;;;;;;19.00;66.72;101169.66;5002853;28;20094;-78
2023/09/25 10:38:13;;;;;;;2.47;1.80;;;;;;;19.04;64.69;101171.16;4987659;28;20047;-77
2023/09/25 10:41:03;;;;;;;2.60;1.80;;;;;;;18.99;68.08;101157.19;4996456;28;20046;-76
2023/09/25 10:43:33;;;;;;;4.25;2.20;;;;;;;19.19;65.71;101169.22;4979889;28;20054;-76
2023/09/25 10:46:07;;;;;;;2.97;2.00;;;;;;;19.29;66.22;101172.97;4990654;28;20072;-76
2023/09/25 10:48:35;;;;;;;5.22;2.03;;;;;;;19.40;64.84;101166.81;4993942;28;20057;-77
2023/09/25 10:51:04;;;;;;;2.37;1.63;;;;;;;19.47;66.37;101162.72;4998723;28;20050;-76
2023/09/25 10:53:37;;;;;;;2.75;1.70;;;;;;;19.57;64.78;101161.13;4975588;28;20104;-77
2023/09/25 10:56:05;;;;;;;3.28;1.95;;;;;;;19.63;64.86;101155.31;4974049;28;20050;-77
2023/09/25 10:58:38;;;;;;;3.85;1.90;;;;;;;19.71;65.38;101160.97;4962106;28;20523;-77
2023/09/25 11:01:07;;;;;;;3.72;2.17;;;;;;;19.77;62.39;101141.72;4977201;28;20041;-77
2023/09/25 11:03:37;;;;;;;4.05;2.50;;;;;;;19.98;64.54;101149.19;4979714;28;20046;-77
2023/09/25 11:06:06;;;;;;;5.38;2.47;;;;;;;20.20;58.48;101150.13;4993006;28;20074;-76
2023/09/25 11:08:36;;;;;;;2.95;2.03;;;;;;;20.37;57.58;101148.91;4969793;28;20463;-74
2023/09/25 11:11:06;;;;;;;3.45;1.95;;;;;;;20.45;56.40;101134.88;4979033;28;20054;-77
2023/09/25 11:13:35;;;;;;;2.40;2.20;;;;;;;20.72;56.13;101145.34;4978815;28;20056;-77
2023/09/25 11:16:06;;;;;;;2.70;1.70;;;;;;;20.55;55.56;101123.28;4976282;28;20046;-77
2023/09/25 11:18:36;;;;;;;4.30;1.65;;;;;;;20.24;57.00;101127.44;4974269;28;20125;-76
2023/09/25 11:21:05;;;;;;;4.20;2.05;;;;;;;20.18;58.85;101143.16;4993646;28;20053;-76
2023/09/25 11:23:34;;;;;;;4.47;2.67;;;;;;;20.23;57.30;101127.53;4982046;28;20062;-77
2023/09/25 11:26:04;;;;;;;3.17;2.47;;;;;;;20.26;57.61;101136.25;4973908;28;20577;-76
2023/09/25 11:28:34;;;;;;;3.30;2.33;;;;;;;20.39;58.92;101127.28;4978513;28;21064;-76
2023/09/25 11:31:08;;;;;;;3.50;1.92;;;;;;;20.65;57.18;101134.19;4996311;28;20042;-76
2023/09/25 11:33:44;;;;;;;2.30;1.40;;;;;;;20.83;54.05;101127.38;4985166;28;20037;-77
2023/09/25 11:36:13;;;;;;;3.53;1.65;;;;;;;21.06;51.64;101139.03;4999237;28;20046;-76